Kornman, Colorado
Current Conditions -  °F | °C
As of 5:53 AM on Sunday 23 Nov 2014 (Local Time) from KLAA Reporting Station
Clear Clear  
Wind Chill: 36°   Ceiling: Unl
Heat Index: 44°   Visibility: 10mi
Dew Point: 30°   Wind: 18mph
Humidity: 58%   Direction: 360°N
Pressure: 29.58"   Gusts: 28mph
Location:  37.885°N, 102.667°W
Report Text: KLAA 231253Z AUTO 36016G24KT 10SM CLR 07/M01 A2958 RMK AO2 PK WND 35026/1212 SLP007 T00671011
Loading
Personal Weather Stations






























Interactive Weather Map New forecast layout! Learn more

10-Day Weather Forecast

Advertisements
Track Severe Weather on mobile